»·PEaware :: CAX948 KGEG-KEUG

CAX948 :: KGEG-KEUG

FLIGHT INFORMATION

Flight Status: Arrived
Operator:
California Airlines (website)
More flights by this operator :: More flights under this callsign
Pilot: Tony D. (5369)
Aircraft: CIRRUS VISIONJET
(SF50)
More flights by this aircraft type
Origin: KGEG Spokane Intl
United States
Destination: KEUG Mahlon Sweet
United States
More flights between these airports :: More routes between these airports
Route: +GEG6 GEG J143 EUG
File this flight plan on PilotEdge
Remarks:
Altitude:
(Current/Filed)
22,000ft
Speed:
(Current/Filed)
280kts
Departed: 12-Dec-19 10:04 AM
Arrived: 12-Dec-19 11:32 AM
Distance/Time
Traveled:
317nm/1:28
Distance/Time
To Go:
Arrived

Flight Plot

Page will automatically refresh every two minutes.


Map Options




Map Legend


Flown Route
Filed Route
Departure Airport
Arrival Airport
Navaid (VOR, NDB)
Fix

Horizontal Profiles

Position Reports

Time Latitude Longitude Heading Altitude Ground
Speed
12-Dec-19 09:47 47.620570 -117.526807 270 2363ft 0kts
12-Dec-19 09:48 47.620570 -117.526807 270 2363ft 0kts
12-Dec-19 09:49 47.620570 -117.526807 270 2363ft 0kts
12-Dec-19 09:50 47.620570 -117.526807 270 2363ft 0kts
12-Dec-19 09:51 47.620570 -117.526807 270 2363ft 0kts
12-Dec-19 09:52 47.620570 -117.526807 270 2363ft 0kts
12-Dec-19 09:53 47.620570 -117.526807 270 2363ft 0kts
12-Dec-19 09:54 47.620570 -117.526807 270 2363ft 0kts
12-Dec-19 09:55 47.620573 -117.526887 280 2363ft 1kts
12-Dec-19 09:56 47.620963 -117.527225 307 2362ft 0kts
12-Dec-19 09:57 47.620963 -117.527225 307 2362ft 0kts
12-Dec-19 09:58 47.621056 -117.528429 273 2362ft 5kts
12-Dec-19 09:59 47.621371 -117.529037 352 2361ft 8kts
12-Dec-19 10:00 47.624024 -117.525625 45 2353ft 16kts
12-Dec-19 10:01 47.627054 -117.521062 44 2338ft 18kts
12-Dec-19 10:02 47.629647 -117.517161 42 2325ft 7kts
12-Dec-19 10:02 47.630626 -117.517604 315 2322ft 4kts
12-Dec-19 10:04 47.620189 -117.534277 223 2708ft 115kts
12-Dec-19 10:04 47.594622 -117.569179 223 3578ft 180kts
12-Dec-19 10:06 47.545646 -117.638258 223 4794ft 228kts
12-Dec-19 10:06 47.506921 -117.692454 224 5635ft 226kts
12-Dec-19 10:07 47.461476 -117.754579 224 6634ft 221kts
12-Dec-19 10:09 47.408602 -117.824445 224 7807ft 215kts
12-Dec-19 10:09 47.370999 -117.872340 224 8643ft 214kts
12-Dec-19 10:10 47.324743 -117.929281 224 9650ft 218kts
12-Dec-19 10:11 47.277095 -117.985666 224 10658ft 222kts
12-Dec-19 10:12 47.227015 -118.042868 224 11671ft 230kts
12-Dec-19 10:13 47.174955 -118.100477 224 12686ft 232kts
12-Dec-19 10:14 47.126690 -118.164606 244 13711ft 221kts
12-Dec-19 10:15 47.093375 -118.244221 244 14747ft 218kts
12-Dec-19 10:16 47.060015 -118.323863 244 15778ft 228kts
12-Dec-19 10:17 47.026381 -118.404601 244 16770ft 234kts
12-Dec-19 10:18 46.992206 -118.486277 244 17754ft 235kts
12-Dec-19 10:19 46.961398 -118.571840 265 18754ft 224kts
12-Dec-19 10:20 46.954395 -118.662354 265 19735ft 220kts
12-Dec-19 10:21 46.946917 -118.750696 265 20761ft 215kts
12-Dec-19 10:22 46.938434 -118.837628 258 21783ft 218kts
12-Dec-19 10:23 46.910822 -118.922240 243 22031ft 248kts
12-Dec-19 10:24 46.868197 -119.006693 238 22029ft 258kts
12-Dec-19 10:25 46.824477 -119.088671 238 22049ft 252kts
12-Dec-19 10:26 46.781552 -119.169180 238 22067ft 250kts
12-Dec-19 10:27 46.738873 -119.249009 238 22086ft 248kts
12-Dec-19 10:28 46.696488 -119.328058 238 22097ft 248kts
12-Dec-19 10:29 46.653871 -119.407312 238 22096ft 248kts
12-Dec-19 10:30 46.611321 -119.486215 238 22095ft 248kts
12-Dec-19 10:31 46.568670 -119.565078 238 22094ft 247kts
12-Dec-19 10:32 46.525925 -119.643893 238 22093ft 247kts
12-Dec-19 10:33 46.483342 -119.722192 238 22103ft 249kts
12-Dec-19 10:34 46.440313 -119.801084 237 22099ft 250kts
12-Dec-19 10:35 46.396963 -119.880332 237 22089ft 250kts
12-Dec-19 10:36 46.353634 -119.959320 238 22079ft 250kts
12-Dec-19 10:37 46.310243 -120.038200 237 22072ft 250kts
12-Dec-19 10:38 46.266775 -120.116993 237 22071ft 250kts
12-Dec-19 10:39 46.223249 -120.195671 237 22071ft 249kts
12-Dec-19 10:40 46.179894 -120.273817 237 22070ft 249kts
12-Dec-19 10:41 46.136516 -120.351785 238 22068ft 249kts
12-Dec-19 10:42 46.093165 -120.429490 238 22068ft 249kts
12-Dec-19 10:43 46.049754 -120.507087 238 22067ft 248kts
12-Dec-19 10:44 46.006157 -120.584800 238 22070ft 248kts
12-Dec-19 10:45 45.962242 -120.662849 237 22088ft 248kts
12-Dec-19 10:46 45.918772 -120.739908 237 22102ft 249kts
12-Dec-19 10:47 45.874901 -120.817463 237 22103ft 250kts
12-Dec-19 10:48 45.830855 -120.895105 237 22102ft 251kts
12-Dec-19 10:49 45.786616 -120.972867 237 22101ft 251kts
12-Dec-19 10:50 45.742664 -121.049913 237 22100ft 249kts
12-Dec-19 10:51 45.696790 -121.123773 231 22099ft 249kts
12-Dec-19 10:52 45.647393 -121.192431 231 22098ft 246kts
12-Dec-19 10:53 45.598149 -121.260428 231 22097ft 243kts
12-Dec-19 10:54 45.549073 -121.328013 231 22096ft 242kts
12-Dec-19 10:55 45.496948 -121.399609 231 22095ft 241kts
12-Dec-19 10:56 45.446755 -121.468366 231 22094ft 241kts
12-Dec-19 10:57 45.397366 -121.535845 231 22093ft 241kts
12-Dec-19 10:58 45.348180 -121.602883 231 22092ft 240kts
12-Dec-19 10:59 45.299689 -121.668798 231 22103ft 241kts
12-Dec-19 11:00 45.250976 -121.734862 231 22096ft 243kts
12-Dec-19 11:01 45.201873 -121.801277 230 22085ft 243kts
12-Dec-19 11:02 45.153278 -121.866814 230 21607ft 235kts
12-Dec-19 11:03 45.106834 -121.929337 230 20597ft 226kts
12-Dec-19 11:04 45.062197 -121.989259 231 19585ft 214kts
12-Dec-19 11:05 45.019705 -122.046199 231 18560ft 204kts
12-Dec-19 11:06 44.978791 -122.100912 232 17530ft 199kts
12-Dec-19 11:07 44.938517 -122.154677 232 16495ft 197kts
12-Dec-19 11:08 44.898589 -122.207867 231 15456ft 198kts
12-Dec-19 11:09 44.857921 -122.261922 230 14450ft 204kts
12-Dec-19 11:10 44.816184 -122.317257 230 13980ft 204kts
12-Dec-19 11:11 44.773003 -122.374384 230 13135ft 199kts
12-Dec-19 11:12 44.730635 -122.430352 229 12053ft 197kts
12-Dec-19 11:13 44.689751 -122.484248 228 11010ft 198kts
12-Dec-19 11:14 44.648182 -122.538914 227 10000ft 197kts
12-Dec-19 11:15 44.608789 -122.590611 227 9969ft 193kts
12-Dec-19 11:16 44.568876 -122.642892 227 9968ft 194kts
12-Dec-19 11:17 44.529269 -122.694660 227 9977ft 196kts
12-Dec-19 11:18 44.505834 -122.760265 254 9370ft 187kts
12-Dec-19 11:19 44.490895 -122.829006 255 8375ft 185kts
12-Dec-19 11:20 44.472422 -122.899328 254 7379ft 199kts
12-Dec-19 11:21 44.451632 -122.972410 254 6369ft 199kts
12-Dec-19 11:22 44.430621 -123.045329 254 5357ft 200kts
12-Dec-19 11:23 44.410560 -123.118080 247 4341ft 198kts
12-Dec-19 11:24 44.387120 -123.187908 206 3334ft 207kts
12-Dec-19 11:25 44.337316 -123.218517 185 2992ft 181kts
12-Dec-19 11:26 44.287345 -123.221356 176 2990ft 176kts
12-Dec-19 11:27 44.238590 -123.220670 177 2399ft 172kts
12-Dec-19 11:28 44.195350 -123.220068 177 1572ft 121kts
12-Dec-19 11:29 44.163090 -123.219570 178 935ft 103kts
12-Dec-19 11:30 44.136145 -123.219067 178 409ft 96kts
12-Dec-19 11:31 44.125452 -123.217918 150 367ft 0kts
12-Dec-19 11:32 44.124856 -123.217419 145 368ft 7kts
12-Dec-19 11:33 44.121820 -123.214862 150 370ft 14kts
12-Dec-19 11:34 44.118981 -123.215843 130 372ft 6kts
12-Dec-19 11:35 44.117841 -123.215231 211 371ft 0kts

Navigation Log

Ident Type
Flight plan parsing failed, navigation log unavailable